sensor_id;sensor_type;location;lat;lon;timestamp;P1;durP1;ratioP1;P2;durP2;ratioP2
70308;SDS011;57716;50.896;4.440;2023-02-15T00:01:46;48.13;;;26.63;;
70308;SDS011;57716;50.896;4.440;2023-02-15T00:04:13;46.33;;;24.73;;
70308;SDS011;57716;50.896;4.440;2023-02-15T00:06:40;46.57;;;24.40;;
70308;SDS011;57716;50.896;4.440;2023-02-15T00:09:06;44.20;;;21.33;;
70308;SDS011;57716;50.896;4.440;2023-02-15T00:11:33;42.77;;;20.10;;
70308;SDS011;57716;50.896;4.440;2023-02-15T00:14:12;44.83;;;24.30;;
70308;SDS011;57716;50.896;4.440;2023-02-15T00:16:40;43.60;;;23.70;;
70308;SDS011;57716;50.896;4.440;2023-02-15T00:19:07;34.50;;;18.20;;
70308;SDS011;57716;50.896;4.440;2023-02-15T00:21:34;46.13;;;23.95;;
70308;SDS011;57716;50.896;4.440;2023-02-15T00:24:01;48.50;;;24.90;;
70308;SDS011;57716;50.896;4.440;2023-02-15T00:26:28;50.05;;;26.05;;
70308;SDS011;57716;50.896;4.440;2023-02-15T00:28:55;56.57;;;29.73;;
70308;SDS011;57716;50.896;4.440;2023-02-15T00:31:23;57.20;;;28.77;;
70308;SDS011;57716;50.896;4.440;2023-02-15T00:33:49;55.50;;;28.60;;
70308;SDS011;57716;50.896;4.440;2023-02-15T00:36:15;58.37;;;31.43;;
70308;SDS011;57716;50.896;4.440;2023-02-15T00:38:41;64.63;;;33.53;;
70308;SDS011;57716;50.896;4.440;2023-02-15T00:41:07;54.77;;;28.70;;
70308;SDS011;57716;50.896;4.440;2023-02-15T00:43:34;54.87;;;28.03;;
70308;SDS011;57716;50.896;4.440;2023-02-15T00:46:00;45.53;;;25.17;;
70308;SDS011;57716;50.896;4.440;2023-02-15T00:48:26;51.43;;;24.40;;
70308;SDS011;57716;50.896;4.440;2023-02-15T00:50:53;48.10;;;25.20;;
70308;SDS011;57716;50.896;4.440;2023-02-15T00:53:20;44.90;;;23.93;;
70308;SDS011;57716;50.896;4.440;2023-02-15T00:55:46;41.33;;;22.57;;
70308;SDS011;57716;50.896;4.440;2023-02-15T00:58:12;50.90;;;25.70;;
70308;SDS011;57716;50.896;4.440;2023-02-15T01:00:38;49.50;;;25.80;;
70308;SDS011;57716;50.896;4.440;2023-02-15T01:03:07;47.20;;;25.23;;
70308;SDS011;57716;50.896;4.440;2023-02-15T01:05:33;51.83;;;27.63;;
70308;SDS011;57716;50.896;4.440;2023-02-15T01:07:58;41.97;;;22.60;;
70308;SDS011;57716;50.896;4.440;2023-02-15T01:10:25;37.40;;;19.67;;
70308;SDS011;57716;50.896;4.440;2023-02-15T01:12:52;34.90;;;20.57;;
70308;SDS011;57716;50.896;4.440;2023-02-15T01:15:18;37.70;;;20.77;;
70308;SDS011;57716;50.896;4.440;2023-02-15T01:17:44;45.97;;;25.70;;
70308;SDS011;57716;50.896;4.440;2023-02-15T01:20:16;48.40;;;25.63;;
70308;SDS011;57716;50.896;4.440;2023-02-15T01:22:42;50.93;;;26.10;;
70308;SDS011;57716;50.896;4.440;2023-02-15T01:25:08;44.90;;;24.63;;
70308;SDS011;57716;50.896;4.440;2023-02-15T01:27:34;52.10;;;26.57;;
70308;SDS011;57716;50.896;4.440;2023-02-15T01:30:00;45.33;;;24.47;;
70308;SDS011;57716;50.896;4.440;2023-02-15T01:32:26;53.63;;;27.33;;
70308;SDS011;57716;50.896;4.440;2023-02-15T01:34:52;52.50;;;27.70;;
70308;SDS011;57716;50.896;4.440;2023-02-15T01:37:18;50.37;;;26.77;;
70308;SDS011;57716;50.896;4.440;2023-02-15T01:39:44;43.87;;;22.97;;
70308;SDS011;57716;50.896;4.440;2023-02-15T01:42:12;51.53;;;25.50;;
70308;SDS011;57716;50.896;4.440;2023-02-15T01:47:20;47.57;;;24.87;;
70308;SDS011;57716;50.896;4.440;2023-02-15T01:49:47;43.47;;;22.67;;
70308;SDS011;57716;50.896;4.440;2023-02-15T01:52:17;44.70;;;24.77;;
70308;SDS011;57716;50.896;4.440;2023-02-15T01:54:44;43.20;;;23.77;;
70308;SDS011;57716;50.896;4.440;2023-02-15T01:57:12;49.45;;;25.83;;
70308;SDS011;57716;50.896;4.440;2023-02-15T01:59:44;48.27;;;24.70;;
70308;SDS011;57716;50.896;4.440;2023-02-15T02:02:13;50.90;;;26.33;;
70308;SDS011;57716;50.896;4.440;2023-02-15T02:09:35;50.03;;;26.10;;
70308;SDS011;57716;50.896;4.440;2023-02-15T02:12:02;55.23;;;28.37;;
70308;SDS011;57716;50.896;4.440;2023-02-15T02:14:28;57.67;;;29.07;;
70308;SDS011;57716;50.896;4.440;2023-02-15T02:16:58;50.93;;;27.97;;
70308;SDS011;57716;50.896;4.440;2023-02-15T02:28:50;53.70;;;27.67;;
70308;SDS011;57716;50.896;4.440;2023-02-15T02:31:37;50.13;;;26.33;;
70308;SDS011;57716;50.896;4.440;2023-02-15T02:36:49;42.80;;;23.97;;
70308;SDS011;57716;50.896;4.440;2023-02-15T02:42:15;40.88;;;22.40;;
70308;SDS011;57716;50.896;4.440;2023-02-15T02:44:54;44.20;;;23.33;;
70308;SDS011;57716;50.896;4.440;2023-02-15T02:47:29;41.90;;;22.00;;
70308;SDS011;57716;50.896;4.440;2023-02-15T02:50:02;40.23;;;20.73;;
70308;SDS011;57716;50.896;4.440;2023-02-15T02:52:35;42.17;;;21.83;;
70308;SDS011;57716;50.896;4.440;2023-02-15T02:55:05;46.77;;;22.87;;
70308;SDS011;57716;50.896;4.440;2023-02-15T02:57:35;43.07;;;23.43;;
70308;SDS011;57716;50.896;4.440;2023-02-15T03:00:05;40.57;;;21.87;;
70308;SDS011;57716;50.896;4.440;2023-02-15T03:02:35;50.93;;;23.60;;
70308;SDS011;57716;50.896;4.440;2023-02-15T03:05:07;48.87;;;22.97;;
70308;SDS011;57716;50.896;4.440;2023-02-15T03:07:39;42.97;;;23.00;;
70308;SDS011;57716;50.896;4.440;2023-02-15T03:10:06;55.72;;;26.33;;
70308;SDS011;57716;50.896;4.440;2023-02-15T03:12:35;51.05;;;25.83;;
70308;SDS011;57716;50.896;4.440;2023-02-15T03:15:10;49.00;;;24.90;;
70308;SDS011;57716;50.896;4.440;2023-02-15T03:17:41;37.17;;;18.98;;
70308;SDS011;57716;50.896;4.440;2023-02-15T03:20:16;48.47;;;23.37;;
70308;SDS011;57716;50.896;4.440;2023-02-15T03:22:57;44.43;;;22.80;;
70308;SDS011;57716;50.896;4.440;2023-02-15T03:25:46;44.73;;;22.43;;
70308;SDS011;57716;50.896;4.440;2023-02-15T03:28:19;53.33;;;23.77;;
70308;SDS011;57716;50.896;4.440;2023-02-15T03:30:51;52.07;;;25.23;;
70308;SDS011;57716;50.896;4.440;2023-02-15T03:33:20;51.10;;;25.47;;
70308;SDS011;57716;50.896;4.440;2023-02-15T03:38:59;51.70;;;27.13;;
70308;SDS011;57716;50.896;4.440;2023-02-15T03:41:29;44.37;;;23.50;;
70308;SDS011;57716;50.896;4.440;2023-02-15T03:44:06;45.40;;;23.23;;
70308;SDS011;57716;50.896;4.440;2023-02-15T03:46:42;43.75;;;23.40;;
70308;SDS011;57716;50.896;4.440;2023-02-15T03:49:14;46.63;;;22.43;;
70308;SDS011;57716;50.896;4.440;2023-02-15T03:51:46;43.73;;;22.37;;
70308;SDS011;57716;50.896;4.440;2023-02-15T03:54:24;44.90;;;22.03;;
70308;SDS011;57716;50.896;4.440;2023-02-15T03:57:09;49.60;;;24.23;;
70308;SDS011;57716;50.896;4.440;2023-02-15T03:59:57;47.97;;;23.23;;
70308;SDS011;57716;50.896;4.440;2023-02-15T04:02:48;49.47;;;24.13;;
70308;SDS011;57716;50.896;4.440;2023-02-15T04:05:31;45.17;;;22.83;;
70308;SDS011;57716;50.896;4.440;2023-02-15T04:07:57;51.00;;;24.93;;
70308;SDS011;57716;50.896;4.440;2023-02-15T04:10:22;47.23;;;24.90;;
70308;SDS011;57716;50.896;4.440;2023-02-15T04:13:07;37.63;;;20.87;;
70308;SDS011;57716;50.896;4.440;2023-02-15T04:15:32;38.33;;;19.77;;
70308;SDS011;57716;50.896;4.440;2023-02-15T04:18:16;41.07;;;21.57;;
70308;SDS011;57716;50.896;4.440;2023-02-15T04:20:45;46.10;;;23.80;;
70308;SDS011;57716;50.896;4.440;2023-02-15T04:23:30;49.38;;;24.30;;
70308;SDS011;57716;50.896;4.440;2023-02-15T04:26:14;45.30;;;23.33;;
70308;SDS011;57716;50.896;4.440;2023-02-15T04:28:40;49.77;;;24.30;;
70308;SDS011;57716;50.896;4.440;2023-02-15T04:31:06;43.00;;;22.43;;
70308;SDS011;57716;50.896;4.440;2023-02-15T04:33:32;44.93;;;23.53;;
70308;SDS011;57716;50.896;4.440;2023-02-15T04:35:57;45.77;;;23.67;;
70308;SDS011;57716;50.896;4.440;2023-02-15T04:38:23;46.53;;;22.90;;
70308;SDS011;57716;50.896;4.440;2023-02-15T04:40:49;46.53;;;24.00;;
70308;SDS011;57716;50.896;4.440;2023-02-15T04:43:16;52.00;;;25.08;;
70308;SDS011;57716;50.896;4.440;2023-02-15T04:45:47;50.00;;;23.87;;
70308;SDS011;57716;50.896;4.440;2023-02-15T04:48:14;44.50;;;25.00;;
70308;SDS011;57716;50.896;4.440;2023-02-15T04:50:40;46.87;;;21.70;;
70308;SDS011;57716;50.896;4.440;2023-02-15T04:53:05;42.20;;;23.37;;
70308;SDS011;57716;50.896;4.440;2023-02-15T04:55:31;39.00;;;20.87;;
70308;SDS011;57716;50.896;4.440;2023-02-15T04:57:57;40.80;;;19.93;;
70308;SDS011;57716;50.896;4.440;2023-02-15T05:00:22;35.03;;;20.50;;
70308;SDS011;57716;50.896;4.440;2023-02-15T05:02:48;46.70;;;23.77;;
70308;SDS011;57716;50.896;4.440;2023-02-15T05:05:14;43.83;;;24.00;;
70308;SDS011;57716;50.896;4.440;2023-02-15T05:07:40;45.00;;;23.13;;
70308;SDS011;57716;50.896;4.440;2023-02-15T05:10:06;41.60;;;22.63;;
70308;SDS011;57716;50.896;4.440;2023-02-15T05:12:32;43.73;;;22.63;;
70308;SDS011;57716;50.896;4.440;2023-02-15T05:14:58;41.17;;;21.53;;
70308;SDS011;57716;50.896;4.440;2023-02-15T05:17:24;46.27;;;22.77;;
70308;SDS011;57716;50.896;4.440;2023-02-15T05:19:49;47.10;;;24.13;;
70308;SDS011;57716;50.896;4.440;2023-02-15T05:22:15;47.03;;;24.23;;
70308;SDS011;57716;50.896;4.440;2023-02-15T05:24:41;42.80;;;21.97;;
70308;SDS011;57716;50.896;4.440;2023-02-15T05:27:25;47.03;;;22.50;;
70308;SDS011;57716;50.896;4.440;2023-02-15T05:30:09;48.67;;;25.00;;
70308;SDS011;57716;50.896;4.440;2023-02-15T05:32:37;34.08;;;17.67;;
70308;SDS011;57716;50.896;4.440;2023-02-15T05:35:04;43.73;;;23.03;;
70308;SDS011;57716;50.896;4.440;2023-02-15T05:37:31;40.00;;;22.02;;
70308;SDS011;57716;50.896;4.440;2023-02-15T05:39:57;41.07;;;22.20;;
70308;SDS011;57716;50.896;4.440;2023-02-15T05:42:22;45.80;;;21.83;;
70308;SDS011;57716;50.896;4.440;2023-02-15T05:44:48;41.00;;;22.27;;
70308;SDS011;57716;50.896;4.440;2023-02-15T05:47:14;38.33;;;20.30;;
70308;SDS011;57716;50.896;4.440;2023-02-15T05:49:39;39.30;;;21.27;;
70308;SDS011;57716;50.896;4.440;2023-02-15T05:52:05;38.07;;;21.13;;
70308;SDS011;57716;50.896;4.440;2023-02-15T05:54:31;40.03;;;21.47;;
70308;SDS011;57716;50.896;4.440;2023-02-15T05:56:56;45.60;;;21.70;;
70308;SDS011;57716;50.896;4.440;2023-02-15T05:59:22;46.50;;;23.43;;
70308;SDS011;57716;50.896;4.440;2023-02-15T06:01:48;47.07;;;23.20;;
70308;SDS011;57716;50.896;4.440;2023-02-15T06:04:14;50.97;;;26.10;;
70308;SDS011;57716;50.896;4.440;2023-02-15T06:06:39;46.17;;;24.50;;
70308;SDS011;57716;50.896;4.440;2023-02-15T06:09:05;46.67;;;24.73;;
70308;SDS011;57716;50.896;4.440;2023-02-15T06:11:31;48.17;;;24.37;;
70308;SDS011;57716;50.896;4.440;2023-02-15T06:13:57;50.67;;;25.37;;
70308;SDS011;57716;50.896;4.440;2023-02-15T06:16:22;50.37;;;26.70;;
70308;SDS011;57716;50.896;4.440;2023-02-15T06:18:48;55.33;;;24.80;;
70308;SDS011;57716;50.896;4.440;2023-02-15T06:21:14;45.40;;;23.27;;
70308;SDS011;57716;50.896;4.440;2023-02-15T06:23:39;48.50;;;24.73;;
70308;SDS011;57716;50.896;4.440;2023-02-15T06:26:05;46.40;;;23.53;;
70308;SDS011;57716;50.896;4.440;2023-02-15T06:28:31;43.40;;;23.17;;
70308;SDS011;57716;50.896;4.440;2023-02-15T06:30:57;42.73;;;22.43;;
70308;SDS011;57716;50.896;4.440;2023-02-15T06:33:22;38.03;;;20.83;;
70308;SDS011;57716;50.896;4.440;2023-02-15T06:35:48;40.47;;;21.23;;
70308;SDS011;57716;50.896;4.440;2023-02-15T06:38:14;42.13;;;21.50;;
70308;SDS011;57716;50.896;4.440;2023-02-15T06:40:40;45.27;;;23.27;;
70308;SDS011;57716;50.896;4.440;2023-02-15T06:43:06;46.33;;;24.47;;
70308;SDS011;57716;50.896;4.440;2023-02-15T06:45:31;46.97;;;23.90;;
70308;SDS011;57716;50.896;4.440;2023-02-15T06:47:57;43.97;;;22.53;;
70308;SDS011;57716;50.896;4.440;2023-02-15T06:50:23;43.47;;;21.90;;
70308;SDS011;57716;50.896;4.440;2023-02-15T06:52:49;41.83;;;20.90;;
70308;SDS011;57716;50.896;4.440;2023-02-15T06:55:14;43.07;;;23.73;;
70308;SDS011;57716;50.896;4.440;2023-02-15T06:57:40;46.87;;;24.13;;
70308;SDS011;57716;50.896;4.440;2023-02-15T07:00:06;45.20;;;23.47;;
70308;SDS011;57716;50.896;4.440;2023-02-15T07:02:33;43.20;;;23.07;;
70308;SDS011;57716;50.896;4.440;2023-02-15T07:04:58;43.53;;;22.87;;
70308;SDS011;57716;50.896;4.440;2023-02-15T07:07:24;53.20;;;25.50;;
70308;SDS011;57716;50.896;4.440;2023-02-15T07:09:50;47.97;;;24.57;;
70308;SDS011;57716;50.896;4.440;2023-02-15T07:12:16;50.83;;;25.83;;
70308;SDS011;57716;50.896;4.440;2023-02-15T07:15:00;50.33;;;24.90;;
70308;SDS011;57716;50.896;4.440;2023-02-15T07:17:26;50.60;;;26.83;;
70308;SDS011;57716;50.896;4.440;2023-02-15T07:19:53;54.77;;;27.57;;
70308;SDS011;57716;50.896;4.440;2023-02-15T07:22:19;58.17;;;26.77;;
70308;SDS011;57716;50.896;4.440;2023-02-15T07:24:45;47.13;;;25.17;;
70308;SDS011;57716;50.896;4.440;2023-02-15T07:27:11;48.10;;;25.03;;
70308;SDS011;57716;50.896;4.440;2023-02-15T07:29:36;48.40;;;25.33;;
70308;SDS011;57716;50.896;4.440;2023-02-15T07:32:02;48.43;;;24.87;;
70308;SDS011;57716;50.896;4.440;2023-02-15T07:34:28;50.40;;;25.73;;
70308;SDS011;57716;50.896;4.440;2023-02-15T07:36:54;52.37;;;25.73;;
70308;SDS011;57716;50.896;4.440;2023-02-15T07:39:20;48.47;;;24.73;;
70308;SDS011;57716;50.896;4.440;2023-02-15T07:41:46;46.03;;;23.83;;
70308;SDS011;57716;50.896;4.440;2023-02-15T07:44:12;46.30;;;24.07;;
70308;SDS011;57716;50.896;4.440;2023-02-15T07:46:38;46.90;;;22.97;;
70308;SDS011;57716;50.896;4.440;2023-02-15T07:49:04;51.03;;;25.13;;
70308;SDS011;57716;50.896;4.440;2023-02-15T07:51:30;48.20;;;24.17;;
70308;SDS011;57716;50.896;4.440;2023-02-15T07:53:56;46.67;;;23.67;;
70308;SDS011;57716;50.896;4.440;2023-02-15T07:56:21;43.97;;;24.13;;
70308;SDS011;57716;50.896;4.440;2023-02-15T07:58:47;47.73;;;24.27;;
70308;SDS011;57716;50.896;4.440;2023-02-15T08:01:16;50.27;;;25.37;;
70308;SDS011;57716;50.896;4.440;2023-02-15T08:03:46;41.73;;;23.00;;
70308;SDS011;57716;50.896;4.440;2023-02-15T08:06:12;42.93;;;23.03;;
70308;SDS011;57716;50.896;4.440;2023-02-15T08:08:38;48.77;;;25.67;;
70308;SDS011;57716;50.896;4.440;2023-02-15T08:11:15;49.30;;;25.23;;
70308;SDS011;57716;50.896;4.440;2023-02-15T08:13:55;49.77;;;26.13;;
70308;SDS011;57716;50.896;4.440;2023-02-15T08:16:58;52.13;;;26.73;;
70308;SDS011;57716;50.896;4.440;2023-02-15T08:19:21;51.03;;;27.27;;
70308;SDS011;57716;50.896;4.440;2023-02-15T08:24:31;54.57;;;26.30;;
70308;SDS011;57716;50.896;4.440;2023-02-15T08:26:58;51.77;;;27.90;;
70308;SDS011;57716;50.896;4.440;2023-02-15T08:29:26;51.03;;;28.17;;
70308;SDS011;57716;50.896;4.440;2023-02-15T08:31:53;57.22;;;28.65;;
70308;SDS011;57716;50.896;4.440;2023-02-15T08:34:23;51.67;;;27.93;;
70308;SDS011;57716;50.896;4.440;2023-02-15T08:36:49;53.53;;;28.07;;
70308;SDS011;57716;50.896;4.440;2023-02-15T08:39:16;52.80;;;28.20;;
70308;SDS011;57716;50.896;4.440;2023-02-15T08:41:45;52.33;;;27.03;;
70308;SDS011;57716;50.896;4.440;2023-02-15T08:44:13;50.23;;;27.47;;
70308;SDS011;57716;50.896;4.440;2023-02-15T08:46:41;55.72;;;29.45;;
70308;SDS011;57716;50.896;4.440;2023-02-15T08:49:08;59.75;;;30.08;;
70308;SDS011;57716;50.896;4.440;2023-02-15T08:51:37;56.83;;;30.00;;
70308;SDS011;57716;50.896;4.440;2023-02-15T08:54:06;58.07;;;29.63;;
70308;SDS011;57716;50.896;4.440;2023-02-15T08:56:35;55.27;;;30.17;;
70308;SDS011;57716;50.896;4.440;2023-02-15T08:59:03;56.40;;;29.63;;
70308;SDS011;57716;50.896;4.440;2023-02-15T09:01:30;51.73;;;29.20;;
70308;SDS011;57716;50.896;4.440;2023-02-15T09:03:58;47.75;;;28.42;;
70308;SDS011;57716;50.896;4.440;2023-02-15T09:06:33;56.33;;;31.17;;
70308;SDS011;57716;50.896;4.440;2023-02-15T09:09:00;60.63;;;31.10;;
70308;SDS011;57716;50.896;4.440;2023-02-15T09:11:27;51.70;;;29.90;;
70308;SDS011;57716;50.896;4.440;2023-02-15T09:13:55;52.85;;;31.67;;
70308;SDS011;57716;50.896;4.440;2023-02-15T09:16:27;63.63;;;33.50;;
70308;SDS011;57716;50.896;4.440;2023-02-15T09:18:54;58.97;;;32.77;;
70308;SDS011;57716;50.896;4.440;2023-02-15T09:21:22;69.28;;;39.17;;
70308;SDS011;57716;50.896;4.440;2023-02-15T09:23:50;91.40;;;47.30;;
70308;SDS011;57716;50.896;4.440;2023-02-15T09:26:20;71.57;;;38.57;;
70308;SDS011;57716;50.896;4.440;2023-02-15T09:28:47;67.50;;;35.67;;
70308;SDS011;57716;50.896;4.440;2023-02-15T09:31:17;69.73;;;35.87;;
70308;SDS011;57716;50.896;4.440;2023-02-15T09:33:45;63.05;;;35.25;;
70308;SDS011;57716;50.896;4.440;2023-02-15T09:38:54;66.90;;;36.03;;
70308;SDS011;57716;50.896;4.440;2023-02-15T09:55:05;52.07;;;28.27;;
70308;SDS011;57716;50.896;4.440;2023-02-15T09:57:46;52.53;;;29.13;;
70308;SDS011;57716;50.896;4.440;2023-02-15T10:00:31;50.23;;;28.87;;
70308;SDS011;57716;50.896;4.440;2023-02-15T10:16:45;49.37;;;26.53;;
70308;SDS011;57716;50.896;4.440;2023-02-15T10:19:36;57.17;;;28.93;;
70308;SDS011;57716;50.896;4.440;2023-02-15T10:22:22;49.03;;;27.47;;
70308;SDS011;57716;50.896;4.440;2023-02-15T10:25:20;51.70;;;27.23;;
70308;SDS011;57716;50.896;4.440;2023-02-15T10:28:31;49.13;;;27.57;;
70308;SDS011;57716;50.896;4.440;2023-02-15T10:31:22;47.87;;;27.07;;
70308;SDS011;57716;50.896;4.440;2023-02-15T10:33:57;53.13;;;28.03;;
70308;SDS011;57716;50.896;4.440;2023-02-15T10:39:25;36.37;;;21.60;;
70308;SDS011;57716;50.896;4.440;2023-02-15T10:44:42;53.97;;;28.63;;
70308;SDS011;57716;50.896;4.440;2023-02-15T10:47:31;47.57;;;27.80;;
70308;SDS011;57716;50.896;4.440;2023-02-15T10:50:29;52.60;;;28.90;;
70308;SDS011;57716;50.896;4.440;2023-02-15T10:53:00;49.43;;;28.37;;
70308;SDS011;57716;50.896;4.440;2023-02-15T10:58:39;53.97;;;28.20;;
70308;SDS011;57716;50.896;4.440;2023-02-15T11:01:13;50.70;;;28.80;;
70308;SDS011;57716;50.896;4.440;2023-02-15T11:06:19;55.17;;;28.83;;
70308;SDS011;57716;50.896;4.440;2023-02-15T11:08:51;49.78;;;25.90;;
70308;SDS011;57716;50.896;4.440;2023-02-15T11:11:32;49.27;;;26.00;;
70308;SDS011;57716;50.896;4.440;2023-02-15T11:14:17;49.73;;;26.00;;
70308;SDS011;57716;50.896;4.440;2023-02-15T11:16:53;53.30;;;27.57;;
70308;SDS011;57716;50.896;4.440;2023-02-15T11:19:34;51.73;;;27.67;;
70308;SDS011;57716;50.896;4.440;2023-02-15T11:22:04;52.50;;;27.17;;
70308;SDS011;57716;50.896;4.440;2023-02-15T11:24:32;49.50;;;25.73;;
70308;SDS011;57716;50.896;4.440;2023-02-15T11:27:20;47.97;;;24.93;;
70308;SDS011;57716;50.896;4.440;2023-02-15T11:29:57;47.03;;;25.30;;
70308;SDS011;57716;50.896;4.440;2023-02-15T11:32:50;46.97;;;24.90;;
70308;SDS011;57716;50.896;4.440;2023-02-15T11:35:21;48.17;;;25.67;;
70308;SDS011;57716;50.896;4.440;2023-02-15T11:38:11;48.67;;;25.50;;
70308;SDS011;57716;50.896;4.440;2023-02-15T11:40:51;46.00;;;24.40;;
70308;SDS011;57716;50.896;4.440;2023-02-15T11:43:33;48.08;;;24.77;;
70308;SDS011;57716;50.896;4.440;2023-02-15T11:46:15;46.10;;;25.67;;
70308;SDS011;57716;50.896;4.440;2023-02-15T11:48:41;46.70;;;24.70;;
70308;SDS011;57716;50.896;4.440;2023-02-15T11:51:14;51.00;;;25.07;;
70308;SDS011;57716;50.896;4.440;2023-02-15T11:53:43;48.80;;;25.60;;
70308;SDS011;57716;50.896;4.440;2023-02-15T11:56:16;43.00;;;24.33;;
70308;SDS011;57716;50.896;4.440;2023-02-15T11:59:18;50.50;;;25.43;;
70308;SDS011;57716;50.896;4.440;2023-02-15T12:01:42;50.77;;;25.90;;
70308;SDS011;57716;50.896;4.440;2023-02-15T12:06:58;49.20;;;25.80;;
70308;SDS011;57716;50.896;4.440;2023-02-15T12:14:52;54.27;;;26.30;;
70308;SDS011;57716;50.896;4.440;2023-02-15T12:17:29;50.23;;;25.67;;
70308;SDS011;57716;50.896;4.440;2023-02-15T12:20:00;56.42;;;27.52;;
70308;SDS011;57716;50.896;4.440;2023-02-15T12:22:32;49.93;;;25.53;;
70308;SDS011;57716;50.896;4.440;2023-02-15T12:25:02;51.77;;;25.03;;
70308;SDS011;57716;50.896;4.440;2023-02-15T12:27:44;49.03;;;26.40;;
70308;SDS011;57716;50.896;4.440;2023-02-15T12:35:37;51.77;;;26.50;;
70308;SDS011;57716;50.896;4.440;2023-02-15T12:38:21;52.33;;;27.70;;
70308;SDS011;57716;50.896;4.440;2023-02-15T12:44:16;52.27;;;27.40;;
70308;SDS011;57716;50.896;4.440;2023-02-15T12:46:35;49.20;;;26.97;;
70308;SDS011;57716;50.896;4.440;2023-02-15T12:52:04;55.27;;;26.87;;
70308;SDS011;57716;50.896;4.440;2023-02-15T12:54:49;52.30;;;26.97;;
70308;SDS011;57716;50.896;4.440;2023-02-15T12:59:58;56.63;;;27.67;;
70308;SDS011;57716;50.896;4.440;2023-02-15T13:02:33;53.53;;;28.10;;
70308;SDS011;57716;50.896;4.440;2023-02-15T13:08:02;50.77;;;26.47;;
70308;SDS011;57716;50.896;4.440;2023-02-15T13:10:36;50.97;;;27.40;;
70308;SDS011;57716;50.896;4.440;2023-02-15T13:13:14;49.03;;;25.90;;
70308;SDS011;57716;50.896;4.440;2023-02-15T13:15:47;49.13;;;26.23;;
70308;SDS011;57716;50.896;4.440;2023-02-15T13:18:16;50.23;;;27.53;;
70308;SDS011;57716;50.896;4.440;2023-02-15T13:21:14;52.33;;;27.37;;
70308;SDS011;57716;50.896;4.440;2023-02-15T13:23:47;76.67;;;39.53;;
70308;SDS011;57716;50.896;4.440;2023-02-15T13:26:19;74.53;;;38.57;;
70308;SDS011;57716;50.896;4.440;2023-02-15T13:28:48;47.27;;;26.20;;
70308;SDS011;57716;50.896;4.440;2023-02-15T13:31:19;113.17;;;53.70;;
70308;SDS011;57716;50.896;4.440;2023-02-15T13:37:01;46.07;;;25.17;;
70308;SDS011;57716;50.896;4.440;2023-02-15T13:39:48;47.93;;;26.57;;
70308;SDS011;57716;50.896;4.440;2023-02-15T13:42:25;49.63;;;27.63;;
70308;SDS011;57716;50.896;4.440;2023-02-15T14:04:53;50.30;;;28.10;;
70308;SDS011;57716;50.896;4.440;2023-02-15T14:07:56;56.23;;;29.17;;
70308;SDS011;57716;50.896;4.440;2023-02-15T14:10:34;52.15;;;28.90;;
70308;SDS011;57716;50.896;4.440;2023-02-15T14:21:48;52.60;;;28.40;;
70308;SDS011;57716;50.896;4.440;2023-02-15T14:27:05;64.93;;;33.30;;
70308;SDS011;57716;50.896;4.440;2023-02-15T14:30:02;58.10;;;29.23;;
70308;SDS011;57716;50.896;4.440;2023-02-15T14:35:40;49.57;;;27.97;;
70308;SDS011;57716;50.896;4.440;2023-02-15T14:38:19;50.60;;;27.80;;
70308;SDS011;57716;50.896;4.440;2023-02-15T14:56:45;75.37;;;38.10;;
70308;SDS011;57716;50.896;4.440;2023-02-15T15:02:15;54.13;;;29.10;;
70308;SDS011;57716;50.896;4.440;2023-02-15T15:05:19;55.83;;;30.53;;
70308;SDS011;57716;50.896;4.440;2023-02-15T15:08:05;56.43;;;29.03;;
70308;SDS011;57716;50.896;4.440;2023-02-15T15:10:45;64.73;;;34.23;;
70308;SDS011;57716;50.896;4.440;2023-02-15T15:15:55;50.33;;;29.07;;
70308;SDS011;57716;50.896;4.440;2023-02-15T15:24:45;52.97;;;30.05;;
70308;SDS011;57716;50.896;4.440;2023-02-15T15:32:39;53.92;;;30.90;;
70308;SDS011;57716;50.896;4.440;2023-02-15T15:44:06;55.80;;;31.83;;
70308;SDS011;57716;50.896;4.440;2023-02-15T15:49:48;56.67;;;32.77;;
70308;SDS011;57716;50.896;4.440;2023-02-15T15:52:15;56.67;;;32.70;;
70308;SDS011;57716;50.896;4.440;2023-02-15T15:54:46;56.80;;;32.50;;
70308;SDS011;57716;50.896;4.440;2023-02-15T15:57:34;55.53;;;32.73;;
70308;SDS011;57716;50.896;4.440;2023-02-15T16:00:04;61.27;;;33.10;;
70308;SDS011;57716;50.896;4.440;2023-02-15T16:03:01;54.30;;;32.50;;
70308;SDS011;57716;50.896;4.440;2023-02-15T16:05:33;55.20;;;32.20;;
70308;SDS011;57716;50.896;4.440;2023-02-15T16:08:00;56.20;;;31.87;;
70308;SDS011;57716;50.896;4.440;2023-02-15T16:10:27;57.80;;;33.17;;
70308;SDS011;57716;50.896;4.440;2023-02-15T16:15:21;63.97;;;33.40;;
70308;SDS011;57716;50.896;4.440;2023-02-15T16:17:50;57.47;;;33.30;;
70308;SDS011;57716;50.896;4.440;2023-02-15T16:20:21;61.33;;;34.20;;
70308;SDS011;57716;50.896;4.440;2023-02-15T16:28:21;64.03;;;34.73;;
70308;SDS011;57716;50.896;4.440;2023-02-15T16:30:54;63.53;;;35.17;;
70308;SDS011;57716;50.896;4.440;2023-02-15T16:33:40;61.40;;;34.70;;
70308;SDS011;57716;50.896;4.440;2023-02-15T16:36:28;62.43;;;33.53;;
70308;SDS011;57716;50.896;4.440;2023-02-15T16:43:49;61.20;;;32.80;;
70308;SDS011;57716;50.896;4.440;2023-02-15T16:48:58;58.73;;;34.87;;
70308;SDS011;57716;50.896;4.440;2023-02-15T16:51:29;63.17;;;35.40;;
70308;SDS011;57716;50.896;4.440;2023-02-15T16:54:00;60.97;;;34.07;;
70308;SDS011;57716;50.896;4.440;2023-02-15T16:56:33;63.03;;;35.20;;
70308;SDS011;57716;50.896;4.440;2023-02-15T16:59:01;64.33;;;34.70;;
70308;SDS011;57716;50.896;4.440;2023-02-15T17:01:29;60.70;;;35.30;;
70308;SDS011;57716;50.896;4.440;2023-02-15T17:04:13;58.10;;;33.20;;
70308;SDS011;57716;50.896;4.440;2023-02-15T17:06:58;61.77;;;33.27;;
70308;SDS011;57716;50.896;4.440;2023-02-15T17:09:24;61.40;;;33.33;;
70308;SDS011;57716;50.896;4.440;2023-02-15T17:11:50;58.13;;;32.33;;
70308;SDS011;57716;50.896;4.440;2023-02-15T17:14:20;51.80;;;29.70;;
70308;SDS011;57716;50.896;4.440;2023-02-15T17:16:54;57.77;;;32.63;;
70308;SDS011;57716;50.896;4.440;2023-02-15T17:19:42;57.23;;;32.60;;
70308;SDS011;57716;50.896;4.440;2023-02-15T17:22:25;55.83;;;30.63;;
70308;SDS011;57716;50.896;4.440;2023-02-15T17:24:58;59.67;;;31.70;;
70308;SDS011;57716;50.896;4.440;2023-02-15T17:27:28;64.47;;;33.67;;
70308;SDS011;57716;50.896;4.440;2023-02-15T17:30:02;60.23;;;33.37;;
70308;SDS011;57716;50.896;4.440;2023-02-15T17:32:37;54.07;;;30.50;;
70308;SDS011;57716;50.896;4.440;2023-02-15T17:35:20;60.33;;;33.33;;
70308;SDS011;57716;50.896;4.440;2023-02-15T17:37:51;65.03;;;34.03;;
70308;SDS011;57716;50.896;4.440;2023-02-15T17:40:28;63.75;;;35.05;;
70308;SDS011;57716;50.896;4.440;2023-02-15T17:42:56;63.63;;;34.30;;
70308;SDS011;57716;50.896;4.440;2023-02-15T17:45:23;66.17;;;35.90;;
70308;SDS011;57716;50.896;4.440;2023-02-15T17:47:51;66.10;;;35.60;;
70308;SDS011;57716;50.896;4.440;2023-02-15T17:50:21;51.57;;;30.23;;
70308;SDS011;57716;50.896;4.440;2023-02-15T17:52:48;55.37;;;31.47;;
70308;SDS011;57716;50.896;4.440;2023-02-15T17:55:16;60.07;;;31.43;;
70308;SDS011;57716;50.896;4.440;2023-02-15T17:57:59;66.40;;;35.30;;
70308;SDS011;57716;50.896;4.440;2023-02-15T18:00:26;63.67;;;34.87;;